Weather at Branson Airport

Public forecast

Using degrees Fahrenheit for public forecast. Weather courtesy of forecast.io.

Current aviation weather report (METAR) for Branson Airport

2024/05/29 17:45 (retrieved 20 minutes ago)

KBBG 291745Z 12006KT 10SM CLR 25/17 A3019

Aviation forecast (TAF) for Branson Airport

2024/05/29 18:22 (retrieved 0 seconds ago)

TAF KBBG 291720Z 2918/3018 12005KT P6SM SCT250 FM292100 12005KT P6SM BKN150 TEMPO 2921/3001 6SM -SHRA BR OVC050 FM300400 13005KT P6SM SCT250